createdAt,value
2018-07-20T00:00:49.916Z,1017.55
2018-07-20T00:01:49.572Z,1017.56
2018-07-20T00:02:50.541Z,1017.55
2018-07-20T00:03:50.576Z,1017.56
2018-07-20T00:04:50.306Z,1017.54
2018-07-20T00:05:50.243Z,1017.57
2018-07-20T00:06:49.950Z,1017.55
2018-07-20T00:07:49.668Z,1017.54
2018-07-20T00:08:49.450Z,1017.47
2018-07-20T00:10:10.711Z,1017.50
2018-07-20T00:11:32.543Z,1017.46
2018-07-20T00:12:32.347Z,1017.43
2018-07-20T00:13:33.180Z,1017.47
2018-07-20T00:14:53.726Z,1017.48
2018-07-20T00:15:54.871Z,1017.52
2018-07-20T00:17:27.932Z,1017.48
2018-07-20T00:21:48.607Z,1017.45
2018-07-20T00:22:50.263Z,1017.43
2018-07-20T00:23:48.695Z,1017.42
2018-07-20T00:24:49.554Z,1017.41
2018-07-20T00:25:49.231Z,1017.40
2018-07-20T00:26:51.069Z,1017.40
2018-07-20T00:27:49.393Z,1017.39
2018-07-20T00:28:49.891Z,1017.42
2018-07-20T00:29:50.049Z,1017.43
2018-07-20T00:30:49.651Z,1017.18
2018-07-20T00:31:49.748Z,1017.40
2018-07-20T00:32:49.933Z,1017.35
2018-07-20T00:33:49.615Z,1017.34
2018-07-20T00:34:49.606Z,1017.34
2018-07-20T00:35:49.652Z,1017.35
2018-07-20T00:36:49.488Z,1017.35
2018-07-20T00:37:49.129Z,1017.36
2018-07-20T00:38:49.493Z,1017.34
2018-07-20T00:39:49.167Z,1017.36
2018-07-20T00:40:48.914Z,1017.36
2018-07-20T00:41:49.999Z,1017.35
2018-07-20T00:42:49.025Z,1017.37
2018-07-20T00:43:50.027Z,1017.37
2018-07-20T00:44:48.907Z,1017.33
2018-07-20T00:45:50.537Z,1017.28
2018-07-20T00:46:49.609Z,1017.29
2018-07-20T00:47:49.236Z,1017.27
2018-07-20T00:48:49.183Z,1017.25
2018-07-20T00:49:48.926Z,1017.24
2018-07-20T00:50:49.897Z,1017.26
2018-07-20T00:51:49.008Z,1017.24
2018-07-20T00:52:48.651Z,1017.23
2018-07-20T00:53:49.414Z,1017.21
2018-07-20T00:54:49.433Z,1017.21
2018-07-20T00:55:49.507Z,1017.18
2018-07-20T00:56:49.503Z,1017.18
2018-07-20T00:57:49.545Z,1017.16
2018-07-20T00:58:49.249Z,1017.15
2018-07-20T00:59:49.233Z,1017.08
2018-07-20T01:00:49.199Z,1017.07
2018-07-20T01:01:49.064Z,1017.06
2018-07-20T01:03:10.475Z,1017.03
2018-07-20T01:04:30.557Z,1017.07
2018-07-20T01:05:30.319Z,1017.05
2018-07-20T01:06:31.425Z,1017.01
2018-07-20T01:07:31.304Z,1016.99
2018-07-20T01:08:31.424Z,1017.00
2018-07-20T01:09:31.491Z,1016.98
2018-07-20T01:10:30.263Z,1016.97
2018-07-20T01:12:11.865Z,1016.97
2018-07-20T01:13:12.980Z,1016.94
2018-07-20T01:14:13.144Z,1016.96
2018-07-20T01:15:11.910Z,1016.95
2018-07-20T01:16:12.524Z,1016.95
2018-07-20T01:17:32.468Z,1016.92
2018-07-20T01:19:14.851Z,1016.98
2018-07-20T01:20:14.526Z,1016.96
2018-07-20T01:21:15.168Z,1016.93
2018-07-20T01:22:35.599Z,1016.92
2018-07-20T01:23:35.259Z,1016.89
2018-07-20T01:24:36.178Z,1016.89
2018-07-20T01:25:35.808Z,1016.87
2018-07-20T01:26:35.360Z,1016.90
2018-07-20T01:27:56.648Z,1016.81
2018-07-20T01:28:57.337Z,1016.89
2018-07-20T01:29:57.027Z,1016.85
2018-07-20T01:30:57.924Z,1016.89
2018-07-20T01:31:58.137Z,1016.87
2018-07-20T01:33:17.567Z,1016.84
2018-07-20T01:34:18.467Z,1016.85
2018-07-20T01:35:18.455Z,1016.87
2018-07-20T01:36:18.539Z,1016.86
2018-07-20T01:37:18.142Z,1016.82
2018-07-20T01:38:18.026Z,1016.86
2018-07-20T01:39:18.778Z,1016.83
2018-07-20T01:40:18.504Z,1016.83
2018-07-20T01:41:18.011Z,1016.81
2018-07-20T01:42:17.643Z,1016.83
2018-07-20T01:43:18.544Z,1016.81
2018-07-20T01:44:39.017Z,1016.80
2018-07-20T01:45:38.650Z,1016.81
2018-07-20T01:46:39.274Z,1016.83
2018-07-20T01:47:39.316Z,1016.81
2018-07-20T01:48:38.925Z,1016.82
2018-07-20T01:49:39.922Z,1016.85
2018-07-20T01:50:39.476Z,1016.78
2018-07-20T01:51:39.387Z,1016.82
2018-07-20T01:52:38.935Z,1016.78
2018-07-20T01:53:39.554Z,1016.77
2018-07-20T01:54:39.136Z,1016.79
2018-07-20T01:55:43.812Z,1016.83
2018-07-20T01:56:39.452Z,1016.81
2018-07-20T01:57:38.938Z,1016.82
2018-07-20T01:58:39.819Z,1016.83
2018-07-20T01:59:39.721Z,1016.81
2018-07-20T02:00:39.510Z,1016.80
2018-07-20T02:01:39.628Z,1016.78
2018-07-20T02:02:39.628Z,1016.81
2018-07-20T02:03:39.210Z,1016.82
2018-07-20T02:04:59.652Z,1016.84
2018-07-20T02:06:20.935Z,1016.83
2018-07-20T02:07:22.141Z,1016.88
2018-07-20T02:08:22.138Z,1016.87
2018-07-20T02:09:21.760Z,1016.85
2018-07-20T02:10:21.459Z,1016.88
2018-07-20T02:11:20.955Z,1016.89
2018-07-20T02:12:21.565Z,1016.86
2018-07-20T02:13:21.326Z,1016.89
2018-07-20T02:14:42.658Z,1016.88
2018-07-20T02:16:04.328Z,1016.85
2018-07-20T02:17:05.321Z,1016.88
2018-07-20T02:18:05.201Z,1016.83
2018-07-20T02:19:46.424Z,1016.86
2018-07-20T02:20:47.398Z,1016.87
2018-07-20T02:21:47.437Z,1016.89
2018-07-20T02:22:47.055Z,1016.89
2018-07-20T02:23:46.608Z,1016.86
2018-07-20T02:24:46.788Z,1016.87
2018-07-20T02:25:46.841Z,1016.86
2018-07-20T02:26:46.710Z,1016.82
2018-07-20T02:27:46.514Z,1016.81
2018-07-20T02:28:46.108Z,1016.83
2018-07-20T02:29:47.247Z,1016.81
2018-07-20T02:30:46.849Z,1016.78
2018-07-20T02:32:07.467Z,1016.76
2018-07-20T02:33:08.048Z,1016.77
2018-07-20T02:34:08.100Z,1016.71
2018-07-20T02:35:07.833Z,1016.69
2018-07-20T02:36:28.448Z,1016.73
2018-07-20T02:37:28.109Z,1016.72
2018-07-20T02:38:28.784Z,1016.71
2018-07-20T02:39:28.379Z,1016.70
2018-07-20T02:40:28.439Z,1016.69
2018-07-20T02:41:27.973Z,1016.67
2018-07-20T02:42:48.925Z,1016.66
2018-07-20T02:43:49.583Z,1016.66
2018-07-20T02:44:49.068Z,1016.63
2018-07-20T02:45:49.747Z,1016.64
2018-07-20T02:46:49.207Z,1016.65
2018-07-20T02:47:49.505Z,1016.66
2018-07-20T02:48:49.119Z,1016.66
2018-07-20T02:50:10.849Z,1016.71
2018-07-20T02:51:32.647Z,1016.68
2018-07-20T02:52:32.310Z,1016.68
2018-07-20T02:53:33.021Z,1016.67
2018-07-20T02:55:35.347Z,1016.65
2018-07-20T02:56:35.047Z,1016.64
2018-07-20T02:57:35.785Z,1016.63
2018-07-20T02:58:36.051Z,1016.66
2018-07-20T02:59:56.417Z,1016.65
2018-07-20T03:00:57.087Z,1016.65
2018-07-20T03:01:56.863Z,1016.63
2018-07-20T03:02:56.890Z,1016.63
2018-07-20T03:03:56.636Z,1016.63
2018-07-20T03:04:57.276Z,1016.64
2018-07-20T03:05:57.139Z,1016.63
2018-07-20T03:06:56.957Z,1016.61
2018-07-20T03:07:57.009Z,1016.62
2018-07-20T03:08:57.765Z,1016.63
2018-07-20T03:09:56.388Z,1016.62
2018-07-20T03:10:57.527Z,1016.60
2018-07-20T03:11:57.485Z,1016.59
2018-07-20T03:12:57.311Z,1016.56
2018-07-20T03:13:56.935Z,1016.56
2018-07-20T03:14:57.006Z,1016.57
2018-07-20T03:15:57.115Z,1016.53
2018-07-20T03:17:17.119Z,1016.54
2018-07-20T03:18:18.191Z,1016.57
2018-07-20T03:19:18.318Z,1016.59
2018-07-20T03:20:18.298Z,1016.60
2018-07-20T03:21:18.401Z,1016.56
2018-07-20T03:22:17.276Z,1016.57
2018-07-20T03:23:18.285Z,1016.58
2018-07-20T03:24:17.977Z,1016.58
2018-07-20T03:25:17.584Z,1016.54
2018-07-20T03:26:17.307Z,1016.52
2018-07-20T03:27:18.294Z,1016.52
2018-07-20T03:28:17.812Z,1016.53
2018-07-20T03:29:17.676Z,1016.54
2018-07-20T03:30:38.749Z,1016.50
2018-07-20T03:31:38.416Z,1016.51
2018-07-20T03:32:39.101Z,1016.47
2018-07-20T03:33:38.792Z,1016.47
2018-07-20T03:34:59.368Z,1016.35
2018-07-20T03:36:00.201Z,1016.45
2018-07-20T03:36:59.865Z,1016.45
2018-07-20T03:38:00.949Z,1016.44
2018-07-20T03:38:59.494Z,1016.43
2018-07-20T03:40:00.288Z,1016.39
2018-07-20T03:40:59.920Z,1016.42
2018-07-20T03:42:00.035Z,1016.42
2018-07-20T03:43:00.145Z,1016.35
2018-07-20T03:43:59.618Z,1016.35
2018-07-20T03:44:59.302Z,1016.35
2018-07-20T03:46:00.036Z,1016.37
2018-07-20T03:47:00.237Z,1016.37
2018-07-20T03:48:00.054Z,1016.33
2018-07-20T03:48:59.816Z,1016.34
2018-07-20T03:49:59.452Z,1016.33
2018-07-20T03:51:21.339Z,1016.32
2018-07-20T03:52:21.445Z,1016.30
2018-07-20T03:53:21.584Z,1016.33
2018-07-20T03:54:21.412Z,1016.31
2018-07-20T03:55:21.373Z,1016.31
2018-07-20T03:56:21.074Z,1016.31
2018-07-20T03:57:21.964Z,1016.33
2018-07-20T03:58:21.640Z,1016.31
2018-07-20T03:59:42.072Z,1016.32
2018-07-20T04:00:43.298Z,1016.33
2018-07-20T04:01:42.852Z,1016.33
2018-07-20T04:02:42.511Z,1016.30
2018-07-20T04:03:42.495Z,1016.27
2018-07-20T04:04:42.696Z,1016.25
2018-07-20T04:05:42.754Z,1016.25
2018-07-20T04:06:42.432Z,1016.24
2018-07-20T04:07:43.779Z,1016.22
2018-07-20T04:08:42.438Z,1016.23
2018-07-20T04:09:42.591Z,1016.19
2018-07-20T04:10:42.375Z,1016.20
2018-07-20T04:11:42.523Z,1016.17
2018-07-20T04:12:42.438Z,1016.19
2018-07-20T04:13:42.217Z,1016.19
2018-07-20T04:14:43.257Z,1016.20
2018-07-20T04:15:42.058Z,1016.19
2018-07-20T04:16:43.332Z,1016.21
2018-07-20T04:17:42.527Z,1016.15
2018-07-20T04:18:43.912Z,1016.22
2018-07-20T04:19:42.906Z,1016.14
2018-07-20T04:20:42.959Z,1016.19
2018-07-20T04:21:42.834Z,1016.21
2018-07-20T04:22:42.417Z,1016.20
2018-07-20T04:23:42.167Z,1016.22
2018-07-20T04:24:42.904Z,1016.23
2018-07-20T04:25:43.023Z,1016.22
2018-07-20T04:26:42.794Z,1016.22
2018-07-20T04:27:42.356Z,1016.18
2018-07-20T04:28:42.228Z,1016.23
2018-07-20T04:29:41.982Z,1016.22
2018-07-20T04:30:43.264Z,1016.23
2018-07-20T04:31:42.462Z,1016.24
2018-07-20T04:32:42.485Z,1016.27
2018-07-20T04:33:42.473Z,1016.26
2018-07-20T04:34:42.402Z,1016.23
2018-07-20T04:35:42.626Z,1016.23
2018-07-20T04:36:42.286Z,1016.18
2018-07-20T04:37:42.314Z,1016.21
2018-07-20T04:38:42.275Z,1016.16
2018-07-20T04:39:43.482Z,1016.21
2018-07-20T04:40:42.235Z,1016.17
2018-07-20T04:41:42.764Z,1016.17
2018-07-20T04:42:42.824Z,1016.22
2018-07-20T04:43:43.175Z,1016.22
2018-07-20T04:44:42.555Z,1016.21
2018-07-20T04:45:42.267Z,1016.21
2018-07-20T04:46:42.130Z,1016.22
2018-07-20T04:47:43.187Z,1016.17
2018-07-20T04:48:44.961Z,1016.15
2018-07-20T04:49:42.790Z,1016.14
2018-07-20T04:50:43.047Z,1016.12
2018-07-20T04:51:44.418Z,1016.12
2018-07-20T04:52:43.465Z,1016.10
2018-07-20T04:53:42.231Z,1016.05
2018-07-20T04:54:41.989Z,1016.09
2018-07-20T04:55:43.025Z,1016.09
2018-07-20T04:56:43.075Z,1016.09
2018-07-20T04:57:42.100Z,1016.11
2018-07-20T04:58:56.916Z,1016.11
2018-07-20T04:59:43.167Z,1016.06
2018-07-20T05:00:43.187Z,1016.08
2018-07-20T05:01:42.346Z,1016.07
2018-07-20T05:02:42.334Z,1016.04
2018-07-20T05:04:03.180Z,1016.01
2018-07-20T05:05:03.419Z,1015.99
2018-07-20T05:06:23.929Z,1015.97
2018-07-20T05:07:24.797Z,1015.97
2018-07-20T05:08:24.501Z,1015.98
2018-07-20T05:09:24.642Z,1015.97
2018-07-20T05:10:24.735Z,1015.92
2018-07-20T05:11:27.436Z,1015.92
2018-07-20T05:12:24.749Z,1015.90
2018-07-20T05:13:24.814Z,1015.93
2018-07-20T05:14:24.735Z,1015.92
2018-07-20T05:15:24.998Z,1015.89
2018-07-20T05:16:24.915Z,1015.87
2018-07-20T05:17:24.565Z,1015.88
2018-07-20T05:18:24.641Z,1015.91
2018-07-20T05:19:24.673Z,1015.89
2018-07-20T05:20:24.835Z,1015.89
2018-07-20T05:21:24.553Z,1015.92
2018-07-20T05:22:24.412Z,1015.91
2018-07-20T05:23:24.586Z,1015.93
2018-07-20T05:24:25.823Z,1015.91
2018-07-20T05:25:24.683Z,1015.86
2018-07-20T05:26:24.680Z,1015.90
2018-07-20T05:27:24.299Z,1015.89
2018-07-20T05:28:45.273Z,1015.87
2018-07-20T05:29:46.112Z,1015.92
2018-07-20T05:30:46.331Z,1015.86
2018-07-20T05:31:46.406Z,1015.88
2018-07-20T05:33:05.744Z,1015.88
2018-07-20T05:34:07.052Z,1015.86
2018-07-20T05:35:06.312Z,1015.87
2018-07-20T05:36:06.462Z,1015.87
2018-07-20T05:37:06.267Z,1015.90
2018-07-20T05:38:06.318Z,1015.89
2018-07-20T05:39:06.085Z,1015.87
2018-07-20T05:40:26.703Z,1015.86
2018-07-20T05:41:47.945Z,1015.90
2018-07-20T05:42:49.161Z,1015.92
2018-07-20T05:43:49.581Z,1015.92
2018-07-20T05:44:48.772Z,1015.90
2018-07-20T05:45:48.908Z,1015.88
2018-07-20T05:46:49.762Z,1015.91
2018-07-20T05:47:49.046Z,1015.90
2018-07-20T05:48:49.351Z,1015.86
2018-07-20T05:49:49.453Z,1015.88
2018-07-20T05:50:48.901Z,1015.91
2018-07-20T05:51:48.791Z,1015.86
2018-07-20T05:52:49.040Z,1015.86
2018-07-20T05:53:48.899Z,1015.84
2018-07-20T05:54:49.094Z,1015.84
2018-07-20T05:55:49.089Z,1015.83
2018-07-20T05:56:48.975Z,1015.83
2018-07-20T05:57:48.828Z,1015.83
2018-07-20T05:58:48.835Z,1015.86
2018-07-20T05:59:49.658Z,1015.86
2018-07-20T06:00:51.054Z,1015.86
2018-07-20T06:01:52.403Z,1015.81
2018-07-20T06:03:09.100Z,1015.86
2018-07-20T06:04:10.375Z,1015.79
2018-07-20T06:05:09.579Z,1015.78
2018-07-20T06:06:30.872Z,1015.80
2018-07-20T06:07:30.886Z,1015.73
2018-07-20T06:08:51.462Z,1015.77
2018-07-20T06:09:52.757Z,1015.70
2018-07-20T06:10:51.777Z,1015.71
2018-07-20T06:11:51.563Z,1015.72
2018-07-20T06:12:53.226Z,1015.65
2018-07-20T06:14:13.475Z,1015.67
2018-07-20T06:15:13.746Z,1015.69
2018-07-20T06:16:13.963Z,1015.67
2018-07-20T06:17:14.350Z,1015.69
2018-07-20T06:18:35.566Z,1015.69
2018-07-20T06:19:34.806Z,1015.68
2018-07-20T06:20:55.588Z,1015.68
2018-07-20T06:21:56.543Z,1015.71
2018-07-20T06:22:56.283Z,1015.69
2018-07-20T06:23:56.774Z,1015.72
2018-07-20T06:24:56.081Z,1015.68
2018-07-20T06:25:56.497Z,1015.70
2018-07-20T06:26:58.095Z,1015.71
2018-07-20T06:28:01.460Z,1015.70
2018-07-20T06:29:03.710Z,1015.71
2018-07-20T06:29:59.918Z,1015.75
2018-07-20T06:31:02.852Z,1015.75
2018-07-20T06:31:56.029Z,1015.71
2018-07-20T06:32:55.812Z,1015.76
2018-07-20T06:33:55.613Z,1015.76
2018-07-20T06:34:56.366Z,1015.77
2018-07-20T06:35:56.229Z,1015.74
2018-07-20T06:36:57.599Z,1015.76
2018-07-20T06:38:17.437Z,1015.77
2018-07-20T06:39:18.226Z,1015.77
2018-07-20T06:40:18.206Z,1015.72
2018-07-20T06:41:18.067Z,1015.74
2018-07-20T06:42:18.165Z,1015.71
2018-07-20T06:43:59.064Z,1015.76
2018-07-20T06:44:59.714Z,1015.75
2018-07-20T06:46:20.688Z,1015.74
2018-07-20T06:47:20.716Z,1015.70
2018-07-20T06:48:20.659Z,1015.71
2018-07-20T06:49:20.378Z,1015.69
2018-07-20T06:50:21.903Z,1015.74
2018-07-20T06:51:21.048Z,1015.73
2018-07-20T06:52:21.445Z,1015.73
2018-07-20T06:53:20.772Z,1015.73
2018-07-20T06:54:21.187Z,1015.72
2018-07-20T06:55:42.385Z,1015.72
2018-07-20T06:57:03.437Z,1015.69
2018-07-20T06:58:03.801Z,1015.68
2018-07-20T06:59:04.206Z,1015.73
2018-07-20T07:00:03.096Z,1015.64
2018-07-20T07:01:03.823Z,1015.63
2018-07-20T07:02:04.012Z,1015.68
2018-07-20T07:03:03.878Z,1015.70
2018-07-20T07:04:04.293Z,1015.70
2018-07-20T07:05:03.723Z,1015.73
2018-07-20T07:06:03.737Z,1015.72
2018-07-20T07:07:04.020Z,1015.71
2018-07-20T07:08:04.290Z,1015.64
2018-07-20T07:09:03.741Z,1015.71
2018-07-20T07:10:03.596Z,1015.69
2018-07-20T07:11:03.924Z,1015.69
2018-07-20T07:12:03.857Z,1015.68
2018-07-20T07:13:26.358Z,1015.63
2018-07-20T07:14:27.405Z,1015.68
2018-07-20T07:15:25.889Z,1015.69
2018-07-20T07:16:24.991Z,1015.70
2018-07-20T07:17:26.409Z,1015.72
2018-07-20T07:18:46.501Z,1015.73
2018-07-20T07:19:46.209Z,1015.69
2018-07-20T07:20:47.519Z,1015.70
2018-07-20T07:21:46.178Z,1015.66
2018-07-20T07:22:47.694Z,1015.66
2018-07-20T07:23:47.612Z,1015.66
2018-07-20T07:24:47.033Z,1015.64
2018-07-20T07:25:46.945Z,1015.68
2018-07-20T07:26:49.038Z,1015.66
2018-07-20T07:27:47.584Z,1015.74
2018-07-20T07:28:46.536Z,1015.76
2018-07-20T07:29:46.660Z,1015.70
2018-07-20T07:30:46.961Z,1015.77
2018-07-20T07:31:46.697Z,1015.73
2018-07-20T07:32:46.929Z,1015.72
2018-07-20T07:33:47.297Z,1015.73
2018-07-20T07:35:06.986Z,1015.73
2018-07-20T07:36:28.962Z,1015.70
2018-07-20T07:38:11.022Z,1015.70
2018-07-20T07:39:11.392Z,1015.70
2018-07-20T07:40:11.493Z,1015.71
2018-07-20T07:41:11.937Z,1015.72
2018-07-20T07:42:12.363Z,1015.70
2018-07-20T07:43:11.760Z,1015.68
2018-07-20T07:44:11.853Z,1015.67
2018-07-20T07:45:11.755Z,1015.66
2018-07-20T07:46:11.752Z,1015.66
2018-07-20T07:47:32.975Z,1015.63
2018-07-20T07:48:54.397Z,1015.58
2018-07-20T07:49:55.798Z,1015.58
2018-07-20T07:50:55.289Z,1015.41
2018-07-20T07:51:55.935Z,1015.59
2018-07-20T07:52:55.059Z,1015.64
2018-07-20T07:53:55.386Z,1015.62
2018-07-20T07:54:55.381Z,1015.64
2018-07-20T07:55:56.115Z,1015.61
2018-07-20T07:56:56.567Z,1015.57
2018-07-20T07:57:54.474Z,1015.59
2018-07-20T07:58:54.828Z,1015.55
2018-07-20T08:00:00.507Z,1015.52
2018-07-20T08:00:56.144Z,1015.56
2018-07-20T08:01:56.507Z,1015.55
2018-07-20T08:02:56.167Z,1015.53
2018-07-20T08:03:57.060Z,1015.55
2018-07-20T08:04:56.011Z,1015.52
2018-07-20T08:06:17.489Z,1015.49
2018-07-20T08:07:19.601Z,1015.47
2018-07-20T08:08:19.792Z,1015.46
2018-07-20T08:09:18.541Z,1015.42
2018-07-20T08:10:18.349Z,1015.44
2018-07-20T08:11:17.850Z,1015.43
2018-07-20T08:12:18.018Z,1015.39
2018-07-20T08:13:17.427Z,1015.40
2018-07-20T08:14:17.599Z,1015.40
2018-07-20T08:15:25.564Z,1015.36
2018-07-20T08:16:17.499Z,1015.37
2018-07-20T08:17:17.862Z,1015.37
2018-07-20T08:18:18.223Z,1015.37
2018-07-20T08:19:17.335Z,1015.38
2018-07-20T08:20:39.273Z,1015.39
2018-07-20T08:21:40.346Z,1015.37
2018-07-20T08:22:39.672Z,1015.38
2018-07-20T08:24:02.798Z,1015.36
2018-07-20T08:25:01.824Z,1015.35
2018-07-20T08:26:03.830Z,1015.34
2018-07-20T08:27:22.613Z,1015.32
2018-07-20T08:28:23.062Z,1015.32
2018-07-20T08:29:23.619Z,1015.33
2018-07-20T08:30:23.247Z,1015.22
2018-07-20T08:31:22.446Z,1015.25
2018-07-20T08:32:22.647Z,1015.27
2018-07-20T08:33:22.421Z,1015.30
2018-07-20T08:34:22.662Z,1015.30
2018-07-20T08:35:22.434Z,1015.30
2018-07-20T08:36:22.235Z,1015.29
2018-07-20T08:37:22.721Z,1015.30
2018-07-20T08:38:22.661Z,1015.33
2018-07-20T08:39:22.621Z,1015.29
2018-07-20T08:40:22.828Z,1015.26
2018-07-20T08:41:44.054Z,1015.27
2018-07-20T08:42:44.915Z,1015.23
2018-07-20T08:43:44.275Z,1015.25
2018-07-20T08:44:44.661Z,1015.22
2018-07-20T08:45:44.483Z,1015.24
2018-07-20T08:46:44.717Z,1015.24
2018-07-20T08:47:44.031Z,1015.23
2018-07-20T08:48:44.031Z,1015.19
2018-07-20T08:49:43.987Z,1015.21
2018-07-20T08:50:43.815Z,1015.18
2018-07-20T08:51:44.158Z,1015.19
2018-07-20T08:52:44.367Z,1015.16
2018-07-20T08:53:44.435Z,1015.12
2018-07-20T08:54:44.944Z,1015.16
2018-07-20T08:55:43.963Z,1015.15
2018-07-20T08:57:04.741Z,1015.14
2018-07-20T08:58:04.809Z,1015.11
2018-07-20T08:59:26.701Z,1015.07
2018-07-20T09:00:47.950Z,1015.08
2018-07-20T09:01:48.752Z,1015.02
2018-07-20T09:02:48.672Z,1015.04
2018-07-20T09:03:48.951Z,1015.06
2018-07-20T09:04:48.291Z,1014.97
2018-07-20T09:05:48.552Z,1014.97
2018-07-20T09:06:48.706Z,1014.99
2018-07-20T09:07:49.015Z,1014.96
2018-07-20T09:08:47.917Z,1014.96
2018-07-20T09:09:48.375Z,1014.91
2018-07-20T09:10:48.575Z,1014.94
2018-07-20T09:11:48.380Z,1014.91
2018-07-20T09:12:48.192Z,1014.92
2018-07-20T09:13:48.535Z,1014.88
2018-07-20T09:14:48.748Z,1014.85
2018-07-20T09:16:10.476Z,1014.82
2018-07-20T09:17:31.578Z,1014.88
2018-07-20T09:18:32.111Z,1014.87
2018-07-20T09:19:31.654Z,1014.87
2018-07-20T09:20:31.664Z,1014.87
2018-07-20T09:21:31.752Z,1014.87
2018-07-20T09:22:54.307Z,1014.88
2018-07-20T09:23:54.080Z,1014.86
2018-07-20T09:25:15.821Z,1014.88
2018-07-20T09:26:16.026Z,1014.87
2018-07-20T09:27:16.010Z,1014.90
2018-07-20T09:28:16.549Z,1014.90
2018-07-20T09:29:36.719Z,1014.91
2018-07-20T09:30:57.962Z,1014.91
2018-07-20T09:33:02.688Z,1014.88
2018-07-20T09:34:03.240Z,1014.87
2018-07-20T10:19:01.462Z,1014.77
2018-07-20T10:21:05.140Z,1014.77
2018-07-20T10:22:05.288Z,1014.70
2018-07-20T10:23:05.547Z,1014.64
2018-07-20T10:24:05.884Z,1014.66
2018-07-20T10:25:04.865Z,1014.67
2018-07-20T10:26:04.673Z,1014.67
2018-07-20T10:27:04.842Z,1014.65
2018-07-20T10:28:04.783Z,1014.75
2018-07-20T10:29:25.727Z,1014.71
2018-07-20T10:30:46.618Z,1014.68
2018-07-20T10:31:47.601Z,1014.67
2018-07-20T10:32:47.534Z,1014.61
2018-07-20T10:33:47.840Z,1014.66
2018-07-20T10:34:46.863Z,1014.64
2018-07-20T10:35:47.891Z,1014.60
2018-07-20T10:37:07.851Z,1014.65
2018-07-20T10:38:08.597Z,1014.68
2018-07-20T10:39:08.751Z,1014.69
2018-07-20T10:40:09.024Z,1014.63
2018-07-20T10:41:08.077Z,1014.62
2018-07-20T10:42:08.227Z,1014.65
2018-07-20T10:43:08.612Z,1014.61
2018-07-20T10:44:07.996Z,1014.53
2018-07-20T10:45:10.999Z,1014.57
2018-07-20T10:46:11.041Z,1014.55
2018-07-20T10:47:41.852Z,1014.51
2018-07-20T10:48:41.014Z,1014.50
2018-07-20T10:49:38.942Z,1014.48
2018-07-20T10:50:41.976Z,1014.49
2018-07-20T10:51:38.962Z,1014.48
2018-07-20T10:52:36.578Z,1014.45
2018-07-20T10:53:38.087Z,1014.44
2018-07-20T10:55:14.774Z,1014.42
2018-07-20T10:56:24.886Z,1014.44
2018-07-20T10:57:12.574Z,1014.39
2018-07-20T10:58:12.629Z,1014.41
2018-07-20T10:59:32.158Z,1014.36
2018-07-20T11:00:07.175Z,1014.34
2018-07-20T11:01:27.661Z,1014.30
2018-07-20T11:02:28.810Z,1014.34
2018-07-20T11:03:27.696Z,1014.32
2018-07-20T11:04:28.020Z,1014.32
2018-07-20T11:05:27.907Z,1014.33
2018-07-20T11:06:28.433Z,1014.36
2018-07-20T11:07:49.156Z,1014.28
2018-07-20T11:09:11.311Z,1014.24
2018-07-20T11:10:11.587Z,1014.28
2018-07-20T11:11:32.957Z,1014.30
2018-07-20T11:12:32.860Z,1014.23
2018-07-20T11:13:54.055Z,1014.24
2018-07-20T11:14:54.066Z,1014.25
2018-07-20T11:15:53.804Z,1014.26
2018-07-20T11:17:16.534Z,1014.24
2018-07-20T11:18:16.865Z,1014.26
2018-07-20T11:19:15.750Z,1014.27
2018-07-20T11:20:15.638Z,1014.24
2018-07-20T11:21:15.947Z,1014.22
2018-07-20T11:22:16.217Z,1014.26
2018-07-20T11:23:16.499Z,1014.22
2018-07-20T11:24:16.224Z,1014.25
2018-07-20T11:25:16.351Z,1014.26
2018-07-20T11:26:16.056Z,1014.25
2018-07-20T11:27:16.484Z,1014.24
2018-07-20T11:28:37.789Z,1014.30
2018-07-20T11:29:37.919Z,1014.28
2018-07-20T11:30:58.337Z,1014.27
2018-07-20T11:31:59.252Z,1014.29
2018-07-20T11:32:59.551Z,1014.28
2018-07-20T11:33:59.642Z,1014.26
2018-07-20T11:34:58.522Z,1014.23
2018-07-20T11:35:59.735Z,1014.20
2018-07-20T11:36:58.716Z,1014.16
2018-07-20T11:37:59.184Z,1014.17
2018-07-20T11:38:59.033Z,1014.14
2018-07-20T11:39:59.537Z,1014.16
2018-07-20T11:40:58.691Z,1014.11
2018-07-20T11:41:59.111Z,1014.09
2018-07-20T11:42:59.424Z,1014.07
2018-07-20T11:43:58.414Z,1014.06
2018-07-20T11:44:58.411Z,1014.03
2018-07-20T11:45:59.529Z,1014.02
2018-07-20T11:46:58.735Z,1014.05
2018-07-20T11:47:58.735Z,1014.06
2018-07-20T11:49:01.878Z,1014.03
2018-07-20T11:49:59.300Z,1014.01
2018-07-20T11:50:59.941Z,1013.97
2018-07-20T11:52:02.411Z,1013.94
2018-07-20T11:52:58.970Z,1013.95
2018-07-20T11:53:59.256Z,1013.95
2018-07-20T11:54:59.528Z,1013.93
2018-07-20T11:55:58.718Z,1013.89
2018-07-20T11:58:03.306Z,1013.87
2018-07-20T11:59:03.622Z,1013.86
2018-07-20T12:00:04.057Z,1013.86
2018-07-20T12:01:03.837Z,1013.80
2018-07-20T12:02:04.045Z,1013.87
2018-07-20T12:03:03.359Z,1013.86
2018-07-20T12:04:04.104Z,1013.85
2018-07-20T12:05:03.116Z,1013.77
2018-07-20T12:06:03.947Z,1013.74
2018-07-20T12:07:03.065Z,1013.80
2018-07-20T12:08:03.081Z,1013.71
2018-07-20T12:09:03.338Z,1013.76
2018-07-20T12:10:03.357Z,1013.81
2018-07-20T12:11:03.766Z,1013.76
2018-07-20T12:12:04.186Z,1013.82
2018-07-20T12:13:03.626Z,1013.78
2018-07-20T12:14:04.159Z,1013.80
2018-07-20T12:15:03.896Z,1013.81
2018-07-20T12:16:04.255Z,1013.70
2018-07-20T12:17:03.847Z,1013.71
2018-07-20T12:18:04.008Z,1013.66
2018-07-20T12:19:03.971Z,1013.74
2018-07-20T12:20:04.086Z,1013.75
2018-07-20T12:21:04.289Z,1013.69
2018-07-20T12:22:26.088Z,1013.72
2018-07-20T12:23:26.650Z,1013.66
2018-07-20T12:24:25.996Z,1013.62
2018-07-20T12:25:26.287Z,1013.61
2018-07-20T12:26:26.959Z,1013.60
2018-07-20T12:27:26.232Z,1013.62
2018-07-20T12:28:26.781Z,1013.58
2018-07-20T12:29:47.223Z,1013.59
2018-07-20T12:30:47.363Z,1013.55
2018-07-20T12:31:47.443Z,1013.54
2018-07-20T12:32:49.158Z,1013.50
2018-07-20T12:34:09.520Z,1013.48
2018-07-20T12:35:30.486Z,1013.50
2018-07-20T12:36:31.167Z,1013.51
2018-07-20T12:37:31.939Z,1013.52
2018-07-20T12:38:31.740Z,1013.57
2018-07-20T12:39:31.283Z,1013.55
2018-07-20T12:40:52.337Z,1013.57
2018-07-20T12:41:53.200Z,1013.61
2018-07-20T12:42:53.119Z,1013.56
2018-07-20T12:44:13.962Z,1013.56
2018-07-20T12:45:14.976Z,1013.58
2018-07-20T12:46:16.104Z,1013.55
2018-07-20T12:47:14.520Z,1013.53
2018-07-20T12:48:14.898Z,1013.46
2018-07-20T12:49:14.851Z,1013.50
2018-07-20T12:50:16.597Z,1013.53
2018-07-20T12:51:14.659Z,1013.55
2018-07-20T12:52:35.417Z,1013.59
2018-07-20T12:53:56.989Z,1013.53
2018-07-20T12:55:18.668Z,1013.53
2018-07-20T12:56:19.506Z,1013.48
2018-07-20T12:57:20.575Z,1013.49
2018-07-20T12:58:19.898Z,1013.40
2018-07-20T12:59:18.906Z,1013.45
2018-07-20T13:00:19.951Z,1013.43
2018-07-20T13:01:18.918Z,1013.45
2018-07-20T13:02:20.125Z,1013.44
2018-07-20T13:03:19.376Z,1013.43
2018-07-20T13:04:19.448Z,1013.41
2018-07-20T13:05:39.150Z,1013.48
2018-07-20T13:07:05.381Z,1013.48
2018-07-20T13:08:02.009Z,1013.51
2018-07-20T13:09:03.234Z,1013.49
2018-07-20T13:10:01.474Z,1013.50
2018-07-20T13:11:01.621Z,1013.46
2018-07-20T13:12:22.655Z,1013.47
2018-07-20T13:13:22.879Z,1013.45
2018-07-20T13:14:23.290Z,1013.46
2018-07-20T13:15:23.598Z,1013.49
2018-07-20T13:16:23.710Z,1013.44
2018-07-20T13:17:44.513Z,1013.44
2018-07-20T13:18:44.579Z,1013.42
2018-07-20T13:20:05.639Z,1013.37
2018-07-20T13:21:06.798Z,1013.38
2018-07-20T13:22:06.607Z,1013.39
2018-07-20T13:23:07.120Z,1013.39
2018-07-20T13:24:06.689Z,1013.38
2018-07-20T13:25:06.652Z,1013.29
2018-07-20T13:26:06.935Z,1013.33
2018-07-20T13:27:26.870Z,1013.29
2018-07-20T13:28:26.865Z,1013.25
2018-07-20T13:29:27.236Z,1013.29
2018-07-20T13:30:27.604Z,1013.21
2018-07-20T13:31:27.381Z,1013.25
2018-07-20T13:32:28.205Z,1013.22
2018-07-20T13:33:27.433Z,1013.21